createdAt,value
2016-10-28T00:00:08.954Z,71.17
2016-10-28T00:01:08.972Z,71.36
2016-10-28T00:02:08.989Z,71.51
2016-10-28T00:03:09.321Z,71.61
2016-10-28T00:04:09.020Z,71.61
2016-10-28T00:05:09.355Z,71.32
2016-10-28T00:06:09.371Z,71.51
2016-10-28T00:07:09.395Z,71.42
2016-10-28T00:08:09.131Z,69.99
2016-10-28T00:09:09.423Z,70.65
2016-10-28T00:10:09.127Z,71.89
2016-10-28T00:11:09.456Z,71.8
2016-10-28T00:12:09.471Z,71.51
2016-10-28T00:13:09.488Z,71.42
2016-10-28T00:14:09.509Z,71.42
2016-10-28T00:15:09.525Z,71.32
2016-10-28T00:16:09.540Z,71.32
2016-10-28T00:17:09.561Z,70.75
2016-10-28T00:18:09.269Z,70.65
2016-10-28T00:19:09.280Z,70.12
2016-10-28T00:20:09.297Z,70.12
2016-10-28T00:21:09.628Z,69.42
2016-10-28T00:22:09.656Z,68.56
2016-10-28T00:23:09.667Z,68.65
2016-10-28T00:24:09.684Z,68.18
2016-10-28T00:25:09.697Z,68.46
2016-10-28T00:26:09.719Z,68.27
2016-10-28T00:27:09.763Z,67.7
2016-10-28T00:28:09.744Z,68.37
2016-10-28T00:29:09.776Z,68.18
2016-10-28T00:30:09.776Z,68.56
2016-10-28T00:31:09.797Z,68.52
2016-10-28T00:32:09.812Z,69.57
2016-10-28T00:33:09.531Z,68.84
2016-10-28T00:34:09.569Z,69.51
2016-10-28T00:35:09.546Z,69.19
2016-10-28T00:36:09.879Z,69.38
2016-10-28T00:37:09.582Z,69.29
2016-10-28T00:38:09.918Z,69.57
2016-10-28T00:39:09.616Z,69.76
2016-10-28T00:40:09.950Z,69.19
2016-10-28T00:41:09.969Z,68.62
2016-10-28T00:42:09.988Z,68.52
2016-10-28T00:43:09.686Z,68.52
2016-10-28T00:44:10.017Z,68.62
2016-10-28T00:45:10.113Z,68.62
2016-10-28T00:46:09.738Z,67.95
2016-10-28T00:47:10.107Z,68.05
2016-10-28T00:48:09.774Z,67.29
2016-10-28T00:49:09.788Z,67.67
2016-10-28T00:50:10.126Z,67.76
2016-10-28T00:51:10.139Z,68.71
2016-10-28T00:52:09.846Z,68.71
2016-10-28T00:53:09.859Z,68.81
2016-10-28T00:54:09.875Z,69.48
2016-10-28T00:55:09.901Z,69.67
2016-10-28T00:56:09.914Z,69.38
2016-10-28T00:57:10.250Z,69.29
2016-10-28T00:58:09.945Z,70.33
2016-10-28T00:59:10.286Z,71.09
2016-10-28T01:00:10.294Z,71.57
2016-10-28T01:01:09.996Z,71.76
2016-10-28T01:02:10.013Z,71.67
2016-10-28T01:03:10.038Z,69.95
2016-10-28T01:04:10.049Z,68.62
2016-10-28T01:05:10.068Z,68.33
2016-10-28T01:06:10.398Z,68.52
2016-10-28T01:07:10.101Z,69.54
2016-10-28T01:08:10.115Z,69.44
2016-10-28T01:09:10.133Z,70.39
2016-10-28T01:10:10.464Z,70.1
2016-10-28T01:11:10.170Z,70.1
2016-10-28T01:12:10.502Z,70.39
2016-10-28T01:13:10.203Z,70.49
2016-10-28T01:14:10.220Z,70.58
2016-10-28T01:15:10.238Z,70.3
2016-10-28T01:16:10.254Z,71.06
2016-10-28T01:17:10.271Z,70.3
2016-10-28T01:18:10.625Z,70.2
2016-10-28T01:19:10.317Z,70.3
2016-10-28T01:20:10.321Z,71.34
2016-10-28T01:21:10.651Z,72.86
2016-10-28T01:22:10.670Z,72.58
2016-10-28T01:23:10.374Z,72.67
2016-10-28T01:24:10.704Z,72.86
2016-10-28T01:25:10.411Z,72.96
2016-10-28T01:26:10.740Z,72.67
2016-10-28T01:27:10.756Z,72.9
2016-10-28T01:28:10.459Z,72.9
2016-10-28T01:29:10.791Z,72.24
2016-10-28T01:30:10.806Z,71.95
2016-10-28T01:31:10.823Z,71.28
2016-10-28T01:32:10.849Z,70.81
2016-10-28T01:33:10.543Z,70.33
2016-10-28T01:34:10.561Z,70.24
2016-10-28T01:35:10.577Z,69.92
2016-10-28T01:36:10.593Z,70.39
2016-10-28T01:37:10.965Z,71.06
2016-10-28T01:38:10.946Z,71.91
2016-10-28T01:39:10.960Z,72.11
2016-10-28T01:40:10.978Z,72.2
2016-10-28T01:41:10.678Z,72.39
2016-10-28T01:42:11.009Z,72.11
2016-10-28T01:43:10.711Z,71.53
2016-10-28T01:44:11.043Z,71.44
2016-10-28T01:45:10.745Z,72.2
2016-10-28T01:46:11.078Z,71.72
2016-10-28T01:47:11.096Z,71.25
2016-10-28T01:48:10.794Z,71.53
2016-10-28T01:49:11.136Z,70.97
2016-10-28T01:50:11.145Z,70.77
2016-10-28T01:51:10.855Z,70.77
2016-10-28T01:52:11.181Z,70.49
2016-10-28T01:53:11.194Z,70.97
2016-10-28T01:54:11.216Z,70.39
2016-10-28T01:55:10.914Z,70.39
2016-10-28T01:56:10.946Z,71.15
2016-10-28T01:57:11.265Z,70.77
2016-10-28T01:58:11.284Z,70.87
2016-10-28T01:59:11.298Z,71.06
2016-10-28T02:00:10.997Z,71.06
2016-10-28T02:01:11.331Z,69.92
2016-10-28T02:02:11.039Z,69.92
2016-10-28T02:03:11.049Z,69.73
2016-10-28T02:04:11.384Z,70.49
2016-10-28T02:05:11.082Z,72.2
2016-10-28T02:06:11.415Z,72.11
2016-10-28T02:07:11.118Z,73.06
2016-10-28T02:08:11.447Z,72.96
2016-10-28T02:09:11.151Z,73.44
2016-10-28T02:10:11.166Z,72.77
2016-10-28T02:11:11.183Z,72.86
2016-10-28T02:12:11.230Z,72.96
2016-10-28T02:13:11.219Z,72.49
2016-10-28T02:14:11.232Z,72.86
2016-10-28T02:15:11.567Z,72.67
2016-10-28T02:16:11.265Z,72.01
2016-10-28T02:17:11.298Z,72.49
2016-10-28T02:18:11.430Z,72.2
2016-10-28T02:19:11.316Z,72.49
2016-10-28T02:20:11.332Z,72.77
2016-10-28T02:21:11.350Z,73.06
2016-10-28T02:22:11.367Z,72.77
2016-10-28T02:23:11.732Z,72.86
2016-10-28T02:24:11.408Z,72.77
2016-10-28T02:25:11.418Z,72.49
2016-10-28T02:26:11.751Z,72.58
2016-10-28T02:27:11.771Z,72.67
2016-10-28T02:28:11.468Z,72.58
2016-10-28T02:29:11.812Z,72.49
2016-10-28T02:30:11.541Z,72.67
2016-10-28T02:31:11.834Z,72.58
2016-10-28T02:32:11.537Z,72.3
2016-10-28T02:33:11.554Z,72.39
2016-10-28T02:34:11.570Z,72.2
2016-10-28T02:35:11.587Z,72.3
2016-10-28T02:36:11.603Z,71.63
2016-10-28T02:37:11.625Z,71.63
2016-10-28T02:38:11.639Z,71.15
2016-10-28T02:39:11.657Z,70.97
2016-10-28T02:40:11.710Z,70.77
2016-10-28T02:41:11.699Z,70.01
2016-10-28T02:42:12.021Z,70.39
2016-10-28T02:43:12.040Z,70.87
2016-10-28T02:44:11.741Z,70.49
2016-10-28T02:45:12.071Z,70.2
2016-10-28T02:46:12.092Z,70.2
2016-10-28T02:47:11.789Z,70.1
2016-10-28T02:48:11.812Z,71.06
2016-10-28T02:49:12.140Z,71.44
2016-10-28T02:50:12.166Z,71.63
2016-10-28T02:51:11.897Z,71.34
2016-10-28T02:52:11.876Z,70.97
2016-10-28T02:53:11.891Z,70.49
2016-10-28T02:54:12.233Z,71.34
2016-10-28T02:55:11.930Z,71.72
2016-10-28T02:56:11.942Z,71.53
2016-10-28T02:57:12.291Z,71.44
2016-10-28T02:58:11.978Z,71.86
2016-10-28T02:59:11.992Z,71.53
2016-10-28T03:00:12.010Z,71.72
2016-10-28T03:01:12.358Z,71.67
2016-10-28T03:02:12.360Z,71.63
2016-10-28T03:03:12.376Z,71.86
2016-10-28T03:04:12.078Z,71.38
2016-10-28T03:05:12.410Z,71.09
2016-10-28T03:06:12.109Z,70.14
2016-10-28T03:07:12.443Z,70.49
2016-10-28T03:08:12.145Z,70.77
2016-10-28T03:09:12.162Z,70.77
2016-10-28T03:10:12.178Z,71.25
2016-10-28T03:11:12.196Z,70.97
2016-10-28T03:12:12.212Z,71.34
2016-10-28T03:13:12.544Z,70.49
2016-10-28T03:14:12.245Z,69.73
2016-10-28T03:15:12.268Z,69.25
2016-10-28T03:16:12.651Z,69.63
2016-10-28T03:17:12.359Z,69.63
2016-10-28T03:18:12.640Z,69.25
2016-10-28T03:19:12.705Z,69.63
2016-10-28T03:20:12.384Z,69.92
2016-10-28T03:21:12.417Z,69.92
2016-10-28T03:22:12.430Z,69.92
2016-10-28T03:23:12.749Z,69.88
2016-10-28T03:24:12.657Z,69.31
2016-10-28T03:25:12.475Z,68.27
2016-10-28T03:26:12.821Z,68.55
2016-10-28T03:27:12.803Z,69.31
2016-10-28T03:28:12.804Z,69.21
2016-10-28T03:29:12.815Z,69.5
2016-10-28T03:30:12.513Z,70.26
2016-10-28T03:31:12.554Z,70.01
2016-10-28T03:32:12.870Z,70.07
2016-10-28T03:33:12.561Z,70.83
2016-10-28T03:34:12.895Z,70.64
2016-10-28T03:35:12.596Z,71.22
2016-10-28T03:36:12.930Z,71.31
2016-10-28T03:37:12.944Z,72.07
2016-10-28T03:38:12.962Z,71.97
2016-10-28T03:39:12.683Z,71.41
2016-10-28T03:40:12.677Z,71.22
2016-10-28T03:41:12.694Z,71.31
2016-10-28T03:42:12.743Z,71.22
2016-10-28T03:43:13.081Z,71.31
2016-10-28T03:44:13.062Z,71.22
2016-10-28T03:45:12.762Z,71.69
2016-10-28T03:46:12.779Z,71.69
2016-10-28T03:47:12.806Z,71.41
2016-10-28T03:48:12.810Z,72.16
2016-10-28T03:49:12.829Z,71.31
2016-10-28T03:50:13.162Z,71.5
2016-10-28T03:51:13.175Z,71.41
2016-10-28T03:52:12.876Z,71.12
2016-10-28T03:53:12.906Z,70.45
2016-10-28T03:54:12.910Z,70.26
2016-10-28T03:55:13.245Z,70.45
2016-10-28T03:56:12.954Z,70.45
2016-10-28T03:57:13.274Z,70.45
2016-10-28T03:58:12.979Z,70.17
2016-10-28T03:59:13.308Z,70.45
2016-10-28T04:00:13.335Z,70.64
2016-10-28T04:01:13.337Z,70.64
2016-10-28T04:02:13.045Z,70.26
2016-10-28T04:03:13.369Z,70.45
2016-10-28T04:04:13.213Z,70.36
2016-10-28T04:05:13.318Z,71.02
2016-10-28T04:06:13.419Z,70.17
2016-10-28T04:07:13.119Z,69.35
2016-10-28T04:08:13.137Z,69.41
2016-10-28T04:09:13.155Z,68.55
2016-10-28T04:10:13.178Z,68.59
2016-10-28T04:11:13.506Z,69.12
2016-10-28T04:12:13.200Z,69.5
2016-10-28T04:13:13.318Z,69.31
2016-10-28T04:14:13.236Z,69.41
2016-10-28T04:15:28.141Z,69.21
2016-10-28T04:16:13.584Z,68.46
2016-10-28T04:17:13.600Z,68.17
2016-10-28T04:18:13.304Z,68.27
2016-10-28T04:19:13.316Z,68.17
2016-10-28T04:20:13.646Z,68.17
2016-10-28T04:21:13.350Z,68.55
2016-10-28T04:22:13.686Z,69.69
2016-10-28T04:23:13.383Z,69.88
2016-10-28T04:24:13.401Z,69.69
2016-10-28T04:25:13.733Z,70.45
2016-10-28T04:26:13.434Z,70.26
2016-10-28T04:27:13.452Z,70.17
2016-10-28T04:28:13.779Z,69.69
2016-10-28T04:29:13.480Z,69.6
2016-10-28T04:30:13.812Z,69.88
2016-10-28T04:31:13.533Z,69.21
2016-10-28T04:32:13.850Z,69.41
2016-10-28T04:33:13.547Z,69.69
2016-10-28T04:34:13.885Z,69.88
2016-10-28T04:35:13.580Z,71.22
2016-10-28T04:36:13.924Z,72.16
2016-10-28T04:37:13.926Z,72.26
2016-10-28T04:38:13.640Z,72.74
2016-10-28T04:39:13.962Z,72.83
2016-10-28T04:40:13.659Z,72.35
2016-10-28T04:41:13.673Z,72.16
2016-10-28T04:42:28.578Z,71.88
2016-10-28T04:43:13.712Z,72.26
2016-10-28T04:44:14.041Z,71.69
2016-10-28T04:45:14.056Z,72.45
2016-10-28T04:46:13.757Z,72.64
2016-10-28T04:47:14.090Z,72.16
2016-10-28T04:48:14.121Z,71.5
2016-10-28T04:49:13.805Z,71.41
2016-10-28T04:50:13.819Z,71.5
2016-10-28T04:51:14.199Z,71.41
2016-10-28T04:52:13.895Z,72.07
2016-10-28T04:53:14.187Z,72.07
2016-10-28T04:54:14.201Z,72.45
2016-10-28T04:55:13.902Z,72.03
2016-10-28T04:56:14.235Z,72.35
2016-10-28T04:57:13.932Z,72.26
2016-10-28T04:58:13.957Z,72.55
2016-10-28T04:59:13.977Z,73.02
2016-10-28T05:00:14.299Z,72.64
2016-10-28T05:01:14.318Z,72.92
2016-10-28T05:02:14.333Z,72.74
2016-10-28T05:03:14.033Z,72.83
2016-10-28T05:04:14.052Z,72.64
2016-10-28T05:05:14.382Z,72.64
2016-10-28T05:06:14.397Z,72.74
2016-10-28T05:07:14.094Z,72.83
2016-10-28T05:08:14.120Z,72.74
2016-10-28T05:09:14.444Z,73.3
2016-10-28T05:10:14.147Z,72.55
2016-10-28T05:11:14.162Z,72.92
2016-10-28T05:12:14.493Z,73.3
2016-10-28T05:13:14.509Z,72.55
2016-10-28T05:14:14.219Z,73.4
2016-10-28T05:15:14.226Z,72.92
2016-10-28T05:16:14.243Z,73.11
2016-10-28T05:17:14.260Z,72.92
2016-10-28T05:18:14.642Z,73.11
2016-10-28T05:19:14.608Z,72.74
2016-10-28T05:20:14.622Z,72.83
2016-10-28T05:21:14.658Z,73.02
2016-10-28T05:22:14.352Z,72.83
2016-10-28T05:23:14.671Z,72.83
2016-10-28T05:24:14.689Z,72.74
2016-10-28T05:25:14.703Z,72.55
2016-10-28T05:26:14.720Z,72.83
2016-10-28T05:27:14.735Z,72.45
2016-10-28T05:28:14.434Z,71.97
2016-10-28T05:29:14.452Z,72.26
2016-10-28T05:30:14.469Z,72.07
2016-10-28T05:31:14.485Z,72.16
2016-10-28T05:32:15.022Z,71.97
2016-10-28T05:33:14.518Z,71.97
2016-10-28T05:34:14.539Z,72.45
2016-10-28T05:35:14.550Z,72.26
2016-10-28T05:36:14.879Z,71.59
2016-10-28T05:37:14.583Z,72.26
2016-10-28T05:38:14.598Z,72.35
2016-10-28T05:39:14.615Z,72.16
2016-10-28T05:40:14.947Z,71.5
2016-10-28T05:41:14.646Z,72.26
2016-10-28T05:42:14.982Z,72.35
2016-10-28T05:43:14.687Z,72.64
2016-10-28T05:44:14.700Z,72.74
2016-10-28T05:45:14.726Z,72.55
2016-10-28T05:46:15.080Z,72.83
2016-10-28T05:47:14.745Z,72.35
2016-10-28T05:48:14.760Z,72.83
2016-10-28T05:49:14.775Z,71.97
2016-10-28T05:50:14.804Z,72.26
2016-10-28T05:51:14.810Z,72.16
2016-10-28T05:52:14.827Z,72.07
2016-10-28T05:53:14.844Z,71.97
2016-10-28T05:54:15.204Z,72.16
2016-10-28T05:55:14.964Z,72.83
2016-10-28T05:56:14.908Z,72.07
2016-10-28T05:57:14.906Z,72.26
2016-10-28T05:58:14.923Z,71.97
2016-10-28T05:59:15.259Z,71.97
2016-10-28T06:00:15.274Z,71.97
2016-10-28T06:01:14.971Z,71.88
2016-10-28T06:02:14.988Z,71.22
2016-10-28T06:03:15.227Z,72.16
2016-10-28T06:04:15.335Z,71.31
2016-10-28T06:05:15.034Z,71.5
2016-10-28T06:06:15.084Z,71.69
2016-10-28T06:07:15.451Z,71.41
2016-10-28T06:08:15.408Z,71.5
2016-10-28T06:09:15.435Z,71.31
2016-10-28T06:10:15.449Z,72.07
2016-10-28T06:11:15.132Z,72.07
2016-10-28T06:12:15.174Z,71.69
2016-10-28T06:13:15.502Z,71.88
2016-10-28T06:14:15.520Z,72.16
2016-10-28T06:15:15.516Z,71.41
2016-10-28T06:16:15.529Z,71.53
2016-10-28T06:17:15.550Z,72.07
2016-10-28T06:18:15.249Z,72.39
2016-10-28T06:19:15.268Z,71.44
2016-10-28T06:20:15.278Z,71.72
2016-10-28T06:21:15.614Z,71.44
2016-10-28T06:22:15.314Z,71.53
2016-10-28T06:23:15.644Z,71.53
2016-10-28T06:24:15.658Z,71.72
2016-10-28T06:25:15.362Z,71.82
2016-10-28T06:26:15.382Z,71.82
2016-10-28T06:27:15.393Z,71.06
2016-10-28T06:28:15.415Z,71.34
2016-10-28T06:29:15.741Z,71.06
2016-10-28T06:30:15.442Z,71.15
2016-10-28T06:31:15.781Z,70.58
2016-10-28T06:32:15.792Z,70.2
2016-10-28T06:33:15.491Z,71.06
2016-10-28T06:34:15.826Z,70.87
2016-10-28T06:35:15.530Z,70.58
2016-10-28T06:36:15.857Z,70.58
2016-10-28T06:37:15.874Z,70.87
2016-10-28T06:38:15.905Z,71.72
2016-10-28T06:39:15.588Z,71.44
2016-10-28T06:40:15.605Z,71.15
2016-10-28T06:41:15.941Z,71.82
2016-10-28T06:42:15.655Z,71.44
2016-10-28T06:43:15.665Z,71.63
2016-10-28T06:44:15.670Z,71.53
2016-10-28T06:45:15.685Z,71.72
2016-10-28T06:46:15.708Z,71.53
2016-10-28T06:47:16.074Z,72.39
2016-10-28T06:48:15.741Z,72.49
2016-10-28T06:49:16.068Z,72.67
2016-10-28T06:50:16.095Z,72.86
2016-10-28T06:51:15.787Z,72.67
2016-10-28T06:52:16.149Z,72.67
2016-10-28T06:53:15.819Z,72.58
2016-10-28T06:54:15.835Z,72.01
2016-10-28T06:55:16.169Z,72.58
2016-10-28T06:56:16.191Z,72.49
2016-10-28T06:57:15.897Z,72.49
2016-10-28T06:58:15.901Z,72.05
2016-10-28T06:59:16.234Z,72.14
2016-10-28T07:00:15.932Z,72.14
2016-10-28T07:01:15.952Z,72.05
2016-10-28T07:02:15.967Z,72.24
2016-10-28T07:03:16.302Z,72.14
2016-10-28T07:04:16.008Z,72.24
2016-10-28T07:05:16.014Z,72.24
2016-10-28T07:06:16.351Z,72.14
2016-10-28T07:07:16.052Z,72.24
2016-10-28T07:08:16.408Z,71.95
2016-10-28T07:09:16.404Z,71.86
2016-10-28T07:10:16.416Z,72.14
2016-10-28T07:11:16.435Z,72.33
2016-10-28T07:12:16.482Z,72.33
2016-10-28T07:13:16.467Z,72.33
2016-10-28T07:14:16.484Z,72.62
2016-10-28T07:15:16.187Z,72.42
2016-10-28T07:16:16.201Z,72.14
2016-10-28T07:17:16.219Z,72.14
2016-10-28T07:18:16.549Z,72.05
2016-10-28T07:19:16.266Z,71.61
2016-10-28T07:20:16.589Z,71.8
2016-10-28T07:21:16.286Z,71.8
2016-10-28T07:22:16.305Z,71.13
2016-10-28T07:23:16.323Z,70.84
2016-10-28T07:24:16.658Z,70.21
2016-10-28T07:25:16.672Z,68.78
2016-10-28T07:26:16.695Z,68.59
2016-10-28T07:27:16.707Z,67.68
2016-10-28T07:28:16.410Z,66.44
2016-10-28T07:29:16.739Z,65.8
2016-10-28T07:30:16.757Z,63.89
2016-10-28T07:31:16.459Z,62.59
2016-10-28T07:32:16.794Z,61
2016-10-28T07:33:16.499Z,59.59
2016-10-28T07:34:16.512Z,58.48
2016-10-28T07:35:16.850Z,57.26
2016-10-28T07:36:16.551Z,56.98
2016-10-28T07:37:16.572Z,56.02
2016-10-28T07:38:16.905Z,55.29
2016-10-28T07:39:16.606Z,53.59
2016-10-28T07:40:16.631Z,52.15
2016-10-28T07:41:17.069Z,51.99
2016-10-28T07:42:16.667Z,51.89
2016-10-28T07:43:17.003Z,51.44
2016-10-28T07:44:17.024Z,50.67
2016-10-28T07:45:16.726Z,50.87
2016-10-28T07:46:17.064Z,51.44
2016-10-28T07:47:17.087Z,49.71
2016-10-28T07:48:17.107Z,49.45
2016-10-28T07:49:16.814Z,48.78
2016-10-28T07:50:17.181Z,48.78
2016-10-28T07:51:17.174Z,48.88
2016-10-28T07:52:16.880Z,48.3
2016-10-28T07:53:17.217Z,48.78
2016-10-28T07:54:17.245Z,47.37
2016-10-28T07:55:16.945Z,46.05
2016-10-28T07:56:16.967Z,44.44
2016-10-28T07:57:17.003Z,43.5
2016-10-28T07:58:17.015Z,42.94
2016-10-28T07:59:17.352Z,42.2
2016-10-28T08:00:17.376Z,41.53
2016-10-28T08:01:17.089Z,40.49
2016-10-28T08:02:17.452Z,40.31
2016-10-28T08:03:17.129Z,41.08
2016-10-28T08:04:17.197Z,41.47
2016-10-28T08:05:17.498Z,40.61
2016-10-28T08:06:17.513Z,40.22
2016-10-28T08:07:17.540Z,39.45
2016-10-28T08:08:17.256Z,39.56
2016-10-28T08:09:17.268Z,38.51
2016-10-28T08:10:17.604Z,38.22
2016-10-28T08:11:17.313Z,38.6
2016-10-28T08:12:17.341Z,38.7
2016-10-28T08:13:17.369Z,39.66
2016-10-28T08:14:17.703Z,40.03
2016-10-28T08:15:17.407Z,40.89
2016-10-28T08:16:17.432Z,40.97
2016-10-28T08:17:17.771Z,41.64
2016-10-28T08:18:17.480Z,42.12
2016-10-28T08:19:17.506Z,42.03
2016-10-28T08:20:17.530Z,43.08
2016-10-28T08:21:17.566Z,42.58
2016-10-28T08:22:17.576Z,42.3
2016-10-28T08:23:17.924Z,42.12
2016-10-28T08:24:17.962Z,41.45
2016-10-28T08:25:17.650Z,41.55
2016-10-28T08:26:17.677Z,41.95
2016-10-28T08:27:17.701Z,40.99
2016-10-28T08:28:17.730Z,40.61
2016-10-28T08:29:18.318Z,39.54
2016-10-28T08:30:18.099Z,39.47
2016-10-28T08:31:18.116Z,40.05
2016-10-28T08:32:18.179Z,38.72
2016-10-28T08:33:17.847Z,38.62
2016-10-28T08:34:18.193Z,38.16
2016-10-28T08:35:17.893Z,38.26
2016-10-28T08:36:18.247Z,38.14
2016-10-28T08:37:18.257Z,38.51
2016-10-28T08:38:17.968Z,39.18
2016-10-28T08:39:17.990Z,40.43
2016-10-28T08:40:18.369Z,40.53
2016-10-28T08:41:18.352Z,40.41
2016-10-28T08:42:18.380Z,40.99
2016-10-28T08:43:18.089Z,42.14
2016-10-28T08:44:18.431Z,41.66
2016-10-28T08:45:18.460Z,41.47
2016-10-28T08:46:18.480Z,42.5
2016-10-28T08:47:18.854Z,42.22
2016-10-28T08:48:18.214Z,42.41
2016-10-28T08:49:18.239Z,42.8
2016-10-28T08:50:18.268Z,42.5
2016-10-28T08:51:18.289Z,43.07
2016-10-28T08:52:18.630Z,42.68
2016-10-28T08:53:18.654Z,42.49
2016-10-28T08:54:18.677Z,42.3
2016-10-28T08:55:18.702Z,42.68
2016-10-28T08:56:18.410Z,42.87
2016-10-28T08:57:18.434Z,42.49
2016-10-28T08:58:18.780Z,43.33
2016-10-28T08:59:18.805Z,43.14
2016-10-28T09:00:18.511Z,43.04
2016-10-28T09:01:18.538Z,42.94
2016-10-28T09:02:18.561Z,42.94
2016-10-28T09:03:18.897Z,42.56
2016-10-28T09:04:18.931Z,43.71
2016-10-28T09:05:18.629Z,43.71
2016-10-28T09:06:18.654Z,44.1
2016-10-28T09:07:18.995Z,43.62
2016-10-28T09:08:18.713Z,42.87
2016-10-28T09:09:19.073Z,41.55
2016-10-28T09:10:18.779Z,42.32
2016-10-28T09:11:19.115Z,43.35
2016-10-28T09:12:19.151Z,43.45
2016-10-28T09:13:18.821Z,43.07
2016-10-28T09:14:19.164Z,42.97
2016-10-28T09:15:18.868Z,43.74
2016-10-28T09:16:19.211Z,44.58
2016-10-28T09:17:19.231Z,45.64
2016-10-28T09:18:18.938Z,45.83
2016-10-28T09:19:19.280Z,45.54
2016-10-28T09:20:18.987Z,45.85
2016-10-28T09:21:19.329Z,44.89
2016-10-28T09:22:19.384Z,44.6
2016-10-28T09:23:19.394Z,45.08
2016-10-28T09:24:19.398Z,45.08
2016-10-28T09:25:19.454Z,45.66
2016-10-28T09:26:19.128Z,45.85
2016-10-28T09:27:19.155Z,45.37
2016-10-28T09:28:19.183Z,45.47
2016-10-28T09:29:19.242Z,45.56
2016-10-28T09:30:19.550Z,45.28
2016-10-28T09:31:19.248Z,44.7
2016-10-28T09:32:19.282Z,46.23
2016-10-28T09:33:19.609Z,44.99
2016-10-28T09:34:19.689Z,45.28
2016-10-28T09:35:19.341Z,45.47
2016-10-28T09:36:19.684Z,45.95
2016-10-28T09:37:19.702Z,45.76
2016-10-28T09:38:19.740Z,46.72
2016-10-28T09:39:19.440Z,46.91
2016-10-28T09:40:19.466Z,46.53
2016-10-28T09:41:19.486Z,45.56
2016-10-28T09:42:19.511Z,45.95
2016-10-28T09:43:19.853Z,45.95
2016-10-28T09:44:19.558Z,45.66
2016-10-28T09:45:19.581Z,45.66
2016-10-28T09:46:19.628Z,45.95
2016-10-28T09:47:19.945Z,45.28
2016-10-28T09:48:19.686Z,45.66
2016-10-28T09:49:20.093Z,46.72
2016-10-28T09:50:19.701Z,46.43
2016-10-28T09:51:20.041Z,45.28
2016-10-28T09:52:20.063Z,46.33
2016-10-28T09:53:19.776Z,46.06
2016-10-28T09:54:19.798Z,45.97
2016-10-28T09:55:20.140Z,45.29
2016-10-28T09:56:20.163Z,45.01
2016-10-28T09:57:19.869Z,43.95
2016-10-28T09:58:19.894Z,44.14
2016-10-28T09:59:19.927Z,45.1
2016-10-28T10:00:20.263Z,44.72
2016-10-28T10:01:19.969Z,44.24
2016-10-28T10:02:20.021Z,43.76
2016-10-28T10:03:20.332Z,44.26
2016-10-28T10:04:20.050Z,44.43
2016-10-28T10:05:20.404Z,43.68
2016-10-28T10:06:20.406Z,43.66
2016-10-28T10:07:20.113Z,43.2
2016-10-28T10:08:20.454Z,43.66
2016-10-28T10:09:20.477Z,43.49
2016-10-28T10:10:20.189Z,44.35
2016-10-28T10:11:20.210Z,45.22
2016-10-28T10:12:20.549Z,44.84
2016-10-28T10:13:20.260Z,45.32
2016-10-28T10:14:20.285Z,44.45
2016-10-28T10:15:20.314Z,43.78
2016-10-28T10:16:20.341Z,43.59
2016-10-28T10:17:20.365Z,43.01
2016-10-28T10:18:20.700Z,44.65
2016-10-28T10:19:20.724Z,43.97
2016-10-28T10:20:20.746Z,43.78
2016-10-28T10:21:20.456Z,43.97
2016-10-28T10:22:20.796Z,43.97
2016-10-28T10:23:20.819Z,44.07
2016-10-28T10:24:20.845Z,43.11
2016-10-28T10:25:20.885Z,42.36
2016-10-28T10:26:20.578Z,43.49
2016-10-28T10:27:20.620Z,42.63
2016-10-28T10:28:20.945Z,43.11
2016-10-28T10:29:20.654Z,43.97
2016-10-28T10:30:20.678Z,44.07
2016-10-28T10:31:20.703Z,44.26
2016-10-28T10:32:20.730Z,44.07
2016-10-28T10:33:21.068Z,45.22
2016-10-28T10:34:21.092Z,45.13
2016-10-28T10:35:21.115Z,44.09
2016-10-28T10:36:20.829Z,42.84
2016-10-28T10:37:21.191Z,42.07
2016-10-28T10:38:21.194Z,41.68
2016-10-28T10:39:20.904Z,43.03
2016-10-28T10:40:21.253Z,42.65
2016-10-28T10:41:20.956Z,41.88
2016-10-28T10:42:20.979Z,42.36
2016-10-28T10:43:21.004Z,41.38
2016-10-28T10:44:21.344Z,40.63
2016-10-28T10:45:21.051Z,41.76
2016-10-28T10:46:21.389Z,41.18
2016-10-28T10:47:21.099Z,41.38
2016-10-28T10:48:21.124Z,40.03
2016-10-28T10:49:21.159Z,40.12
2016-10-28T10:50:21.491Z,40.7
2016-10-28T10:51:21.200Z,40.97
2016-10-28T10:52:21.223Z,41.74
2016-10-28T10:53:21.248Z,40.97
2016-10-28T10:54:21.586Z,41.64
2016-10-28T10:55:21.610Z,41.83
2016-10-28T10:56:21.634Z,41.26
2016-10-28T10:57:21.354Z,42.49
2016-10-28T10:58:21.383Z,41.93
2016-10-28T10:59:21.401Z,41.45
2016-10-28T11:00:21.746Z,41.74
2016-10-28T11:01:21.755Z,41.26
2016-10-28T11:02:21.465Z,40.97
2016-10-28T11:03:21.805Z,38.95
2016-10-28T11:04:21.832Z,40.3
2016-10-28T11:05:21.540Z,39.81
2016-10-28T11:06:21.563Z,40.58
2016-10-28T11:07:21.590Z,40.58
2016-10-28T11:08:21.926Z,41.74
2016-10-28T11:09:21.954Z,40.3
2016-10-28T11:10:21.975Z,40.3
2016-10-28T11:11:21.999Z,40.97
2016-10-28T11:12:21.719Z,41.26
2016-10-28T11:13:21.767Z,40.88
2016-10-28T11:14:21.760Z,41.45
2016-10-28T11:15:22.097Z,42.7
2016-10-28T11:16:21.805Z,42.05
2016-10-28T11:17:21.829Z,41.47
2016-10-28T11:18:21.853Z,40.89
2016-10-28T11:19:21.887Z,41.76
2016-10-28T11:20:22.219Z,41.66
2016-10-28T11:21:22.244Z,41.38
2016-10-28T11:22:21.954Z,41.86
2016-10-28T11:23:22.290Z,41.95
2016-10-28T11:24:22.000Z,42.24
2016-10-28T11:25:22.337Z,41.86
2016-10-28T11:26:22.370Z,40.61
2016-10-28T11:27:22.390Z,40.8
2016-10-28T11:28:22.103Z,40.7
2016-10-28T11:29:22.122Z,40.8
2016-10-28T11:30:22.151Z,38.99
2016-10-28T11:31:22.171Z,39.16
2016-10-28T11:32:22.198Z,39.86
2016-10-28T11:33:22.537Z,37.83
2016-10-28T11:34:22.562Z,38.02
2016-10-28T11:35:22.269Z,36.87
2016-10-28T11:36:22.619Z,36.58
2016-10-28T11:37:22.637Z,37.35
2016-10-28T11:38:22.660Z,38.41
2016-10-28T11:39:22.369Z,37.54
2016-10-28T11:40:22.717Z,38.99
2016-10-28T11:41:22.734Z,37.93
2016-10-28T11:42:22.451Z,35.91
2016-10-28T11:43:22.473Z,36.97
2016-10-28T11:44:22.815Z,37.26
2016-10-28T11:45:22.834Z,36.1
2016-10-28T11:46:22.549Z,35.04
2016-10-28T11:47:22.894Z,34.37
2016-10-28T11:48:22.910Z,32.9
2016-10-28T11:49:22.931Z,33.29
2016-10-28T11:50:22.644Z,34.05
2016-10-28T11:51:22.703Z,33.18
2016-10-28T11:52:22.693Z,33.95
2016-10-28T11:53:22.718Z,33.95
2016-10-28T11:54:23.056Z,34.45
2016-10-28T11:55:23.080Z,33.67
2016-10-28T11:56:23.105Z,34.83
2016-10-28T11:57:23.132Z,36.93
2016-10-28T11:58:23.156Z,38.18
2016-10-28T11:59:23.181Z,37.89
2016-10-28T12:00:23.250Z,37.41
2016-10-28T12:01:22.912Z,38.49
2016-10-28T12:02:23.256Z,39.04
2016-10-28T12:03:22.960Z,40.01
2016-10-28T12:04:23.306Z,39.91
2016-10-28T12:05:23.016Z,40.58
2016-10-28T12:06:23.032Z,41.06
2016-10-28T12:07:23.392Z,41.93
2016-10-28T12:08:23.119Z,41.74
2016-10-28T12:09:23.434Z,42.8
2016-10-28T12:10:23.135Z,42.53
2016-10-28T12:11:23.155Z,42.43
2016-10-28T12:12:23.180Z,41.86
2016-10-28T12:13:23.202Z,40.99
2016-10-28T12:14:23.227Z,38.68
2016-10-28T12:15:23.252Z,38.87
2016-10-28T12:16:23.597Z,38.97
2016-10-28T12:17:23.618Z,40.12
2016-10-28T12:18:23.640Z,40.12
2016-10-28T12:19:23.350Z,39.83
2016-10-28T12:20:23.375Z,41.38
2016-10-28T12:21:23.718Z,40.61
2016-10-28T12:22:23.738Z,40.41
2016-10-28T12:23:23.452Z,41.38
2016-10-28T12:24:23.477Z,41.08
2016-10-28T12:25:23.498Z,39.09
2016-10-28T12:26:23.843Z,38.7
2016-10-28T12:27:23.581Z,38.1
2016-10-28T12:28:23.884Z,38.1
2016-10-28T12:29:23.914Z,38.87
2016-10-28T12:30:23.619Z,39.06
2016-10-28T12:31:23.958Z,38.97
2016-10-28T12:32:23.984Z,37.43
2016-10-28T12:33:23.692Z,38.1
2016-10-28T12:34:23.717Z,37.14
2016-10-28T12:35:24.055Z,37.24
2016-10-28T12:36:23.765Z,38.78
2016-10-28T12:37:23.791Z,40.12
2016-10-28T12:38:24.187Z,40.12
2016-10-28T12:39:24.159Z,40.12
2016-10-28T12:40:23.867Z,40.31
2016-10-28T12:41:23.886Z,40.03
2016-10-28T12:42:24.229Z,40.8
2016-10-28T12:43:23.935Z,40.61
2016-10-28T12:44:24.276Z,40.7
2016-10-28T12:45:24.299Z,40.7
2016-10-28T12:46:24.010Z,40.51
2016-10-28T12:47:24.032Z,41.18
2016-10-28T12:48:24.058Z,41.18
2016-10-28T12:49:24.401Z,40.31
2016-10-28T12:50:24.433Z,40.99
2016-10-28T12:51:24.474Z,40.89
2016-10-28T12:52:24.477Z,40.61
2016-10-28T12:53:24.194Z,40.61
2016-10-28T12:54:24.541Z,40.61
2016-10-28T12:55:24.542Z,40.22